createdAt,value
2023-01-29T00:01:54.084Z,11.52
2023-01-29T00:04:20.867Z,10.15
2023-01-29T00:06:47.469Z,9.90
2023-01-29T00:09:14.206Z,9.55
2023-01-29T00:11:41.065Z,11.05
2023-01-29T00:14:07.983Z,9.13
2023-01-29T00:16:34.526Z,9.52
2023-01-29T00:19:02.438Z,9.82
2023-01-29T00:21:31.101Z,10.52
2023-01-29T00:23:58.325Z,10.63
2023-01-29T00:26:25.008Z,10.60
2023-01-29T00:28:51.627Z,10.98
2023-01-29T00:31:21.195Z,10.18
2023-01-29T00:33:48.319Z,9.70
2023-01-29T00:36:17.589Z,9.82
2023-01-29T00:38:44.379Z,9.43
2023-01-29T00:41:32.678Z,9.70
2023-01-29T00:44:18.973Z,10.07
2023-01-29T00:46:46.315Z,9.60
2023-01-29T00:49:12.945Z,10.60
2023-01-29T00:51:39.890Z,9.95
2023-01-29T00:54:09.750Z,11.60
2023-01-29T00:56:37.206Z,9.43
2023-01-29T00:59:04.517Z,10.23
2023-01-29T01:01:49.809Z,10.35
2023-01-29T01:04:16.447Z,9.20
2023-01-29T01:06:43.724Z,10.18
2023-01-29T01:09:29.761Z,10.35
2023-01-29T01:11:56.417Z,9.93
2023-01-29T01:14:23.081Z,9.57
2023-01-29T01:16:50.170Z,9.32
2023-01-29T01:19:16.974Z,9.88
2023-01-29T01:21:45.574Z,9.27
2023-01-29T01:24:12.964Z,9.02
2023-01-29T01:26:39.897Z,9.35
2023-01-29T01:29:06.980Z,9.50
2023-01-29T01:31:33.757Z,9.82
2023-01-29T01:34:00.353Z,11.07
2023-01-29T01:36:26.876Z,9.63
2023-01-29T01:38:54.363Z,9.52
2023-01-29T01:41:23.323Z,9.05
2023-01-29T01:43:49.866Z,9.43
2023-01-29T01:46:17.128Z,8.48
2023-01-29T01:48:45.969Z,9.32
2023-01-29T01:51:15.660Z,9.70
2023-01-29T01:53:50.224Z,8.98
2023-01-29T01:56:26.578Z,8.93
2023-01-29T01:58:56.951Z,10.57
2023-01-29T02:01:28.119Z,8.45
2023-01-29T02:04:23.413Z,9.57
2023-01-29T02:07:11.074Z,9.93
2023-01-29T02:09:46.492Z,9.43
2023-01-29T02:12:16.121Z,9.40
2023-01-29T02:14:44.177Z,9.18
2023-01-29T02:17:14.335Z,10.00
2023-01-29T02:20:05.665Z,11.15
2023-01-29T02:22:35.471Z,11.20
2023-01-29T02:25:26.923Z,8.88
2023-01-29T02:28:14.154Z,9.10
2023-01-29T02:30:56.377Z,10.07
2023-01-29T02:33:48.149Z,9.20
2023-01-29T02:36:40.840Z,9.95
2023-01-29T02:39:23.821Z,8.63
2023-01-29T02:42:11.716Z,9.10
2023-01-29T02:44:44.018Z,9.18
2023-01-29T02:47:38.219Z,9.40
2023-01-29T02:50:29.758Z,8.82
2023-01-29T02:53:11.149Z,11.02
2023-01-29T02:55:52.910Z,9.98
2023-01-29T02:58:28.123Z,10.27
2023-01-29T03:00:59.249Z,10.35
2023-01-29T03:06:22.535Z,9.88
2023-01-29T03:09:05.180Z,10.48
2023-01-29T03:11:42.511Z,9.82
2023-01-29T03:14:18.202Z,10.00
2023-01-29T03:16:51.559Z,9.75
2023-01-29T03:19:26.214Z,10.85
2023-01-29T03:22:01.106Z,10.48
2023-01-29T03:25:09.673Z,10.20
2023-01-29T03:28:08.096Z,10.40
2023-01-29T03:30:57.311Z,11.27
2023-01-29T03:33:26.643Z,10.38
2023-01-29T03:36:02.581Z,11.55
2023-01-29T03:38:32.174Z,11.43
2023-01-29T03:41:23.026Z,11.07
2023-01-29T03:44:34.591Z,11.63
2023-01-29T03:47:29.204Z,10.80
2023-01-29T03:50:17.578Z,10.82
2023-01-29T03:52:53.607Z,11.90
2023-01-29T03:55:49.540Z,11.07
2023-01-29T03:58:41.162Z,11.15
2023-01-29T04:01:13.456Z,10.90
2023-01-29T04:03:43.748Z,10.45
2023-01-29T04:06:15.123Z,11.32
2023-01-29T04:09:06.415Z,11.60
2023-01-29T04:11:37.325Z,11.85
2023-01-29T04:14:04.602Z,13.90
2023-01-29T04:16:39.950Z,11.18
2023-01-29T04:19:06.998Z,11.77
2023-01-29T04:21:37.627Z,12.25
2023-01-29T04:24:06.769Z,10.55
2023-01-29T04:26:52.135Z,11.60
2023-01-29T04:29:38.539Z,11.52
2023-01-29T04:32:08.227Z,12.15
2023-01-29T04:34:58.995Z,11.52
2023-01-29T04:37:59.601Z,11.20
2023-01-29T04:40:39.363Z,12.88
2023-01-29T04:43:29.193Z,11.13
2023-01-29T04:46:07.341Z,10.85
2023-01-29T04:48:36.804Z,11.82
2023-01-29T04:51:21.125Z,11.48
2023-01-29T04:53:57.237Z,10.63
2023-01-29T04:56:33.296Z,11.60
2023-01-29T04:59:07.568Z,11.32
2023-01-29T05:01:36.032Z,11.98
2023-01-29T05:04:07.454Z,11.98
2023-01-29T05:06:35.968Z,10.80
2023-01-29T05:09:03.479Z,12.27
2023-01-29T05:11:32.833Z,12.43
2023-01-29T05:14:02.363Z,11.82
2023-01-29T05:16:42.018Z,11.15
2023-01-29T05:19:13.608Z,12.07
2023-01-29T05:21:43.776Z,12.02
2023-01-29T05:24:19.634Z,12.38
2023-01-29T05:27:07.451Z,11.55
2023-01-29T05:29:34.280Z,12.32
2023-01-29T05:32:01.138Z,14.05
2023-01-29T05:34:27.693Z,11.35
2023-01-29T05:36:54.298Z,11.98
2023-01-29T05:39:20.913Z,12.25
2023-01-29T05:41:47.802Z,11.25
2023-01-29T05:44:14.300Z,13.32
2023-01-29T05:46:40.965Z,14.00
2023-01-29T05:49:07.652Z,11.90
2023-01-29T05:51:34.394Z,12.57
2023-01-29T05:54:01.918Z,10.88
2023-01-29T05:56:28.564Z,11.52
2023-01-29T05:58:55.741Z,12.63
2023-01-29T06:01:25.154Z,13.70
2023-01-29T06:03:52.109Z,12.27
2023-01-29T06:06:18.990Z,12.73
2023-01-29T06:08:45.729Z,11.13
2023-01-29T06:11:14.202Z,13.93
2023-01-29T06:13:41.078Z,12.18
2023-01-29T06:16:08.922Z,11.82
2023-01-29T06:18:39.879Z,13.38
2023-01-29T06:21:10.376Z,12.02
2023-01-29T06:23:37.355Z,11.30
2023-01-29T06:26:09.105Z,11.60
2023-01-29T06:28:35.708Z,13.57
2023-01-29T06:31:23.756Z,12.77
2023-01-29T06:33:50.973Z,12.55
2023-01-29T06:36:17.702Z,10.88
2023-01-29T06:38:44.288Z,11.55
2023-01-29T06:41:13.048Z,11.25
2023-01-29T06:43:40.078Z,12.68
2023-01-29T06:46:08.174Z,11.15
2023-01-29T06:48:35.284Z,10.98
2023-01-29T06:51:06.784Z,10.75
2023-01-29T06:53:34.747Z,11.82
2023-01-29T06:56:01.252Z,12.15
2023-01-29T06:58:27.772Z,11.02
2023-01-29T07:00:54.432Z,12.52
2023-01-29T07:03:21.236Z,11.23
2023-01-29T07:05:53.058Z,12.27
2023-01-29T07:08:22.627Z,11.80
2023-01-29T07:10:52.974Z,12.85
2023-01-29T07:13:19.502Z,11.23
2023-01-29T07:15:46.317Z,11.65
2023-01-29T07:18:12.795Z,11.90
2023-01-29T07:20:40.758Z,11.40
2023-01-29T07:23:10.965Z,12.57
2023-01-29T07:25:37.777Z,12.40
2023-01-29T07:28:05.095Z,11.10
2023-01-29T07:30:32.010Z,12.48
2023-01-29T07:33:16.728Z,12.10
2023-01-29T07:35:43.765Z,12.43
2023-01-29T07:38:14.002Z,10.63
2023-01-29T07:40:40.823Z,11.80
2023-01-29T07:43:08.049Z,10.32
2023-01-29T07:45:39.759Z,11.02
2023-01-29T07:48:09.753Z,10.65
2023-01-29T07:50:36.589Z,10.50
2023-01-29T07:53:03.761Z,12.05
2023-01-29T07:55:30.967Z,11.05
2023-01-29T07:57:57.898Z,11.95
2023-01-29T08:00:25.212Z,10.20
2023-01-29T08:02:51.921Z,10.80
2023-01-29T08:05:19.066Z,12.63
2023-01-29T08:07:51.487Z,10.82
2023-01-29T08:10:24.822Z,11.23
2023-01-29T08:12:59.328Z,11.15
2023-01-29T08:15:28.056Z,11.48
2023-01-29T08:17:58.085Z,12.00
2023-01-29T08:20:25.784Z,11.43
2023-01-29T08:23:00.234Z,10.65
2023-01-29T08:25:27.386Z,11.32
2023-01-29T08:27:54.220Z,11.57
2023-01-29T08:30:20.850Z,10.70
2023-01-29T08:32:47.435Z,11.05
2023-01-29T08:35:13.979Z,10.48
2023-01-29T08:37:40.548Z,10.80
2023-01-29T08:40:09.526Z,10.27
2023-01-29T08:42:36.436Z,10.63
2023-01-29T08:45:05.013Z,11.38
2023-01-29T08:47:31.554Z,10.80
2023-01-29T08:49:58.048Z,12.80
2023-01-29T08:52:24.915Z,10.63
2023-01-29T08:54:51.453Z,11.77
2023-01-29T08:57:18.054Z,10.80
2023-01-29T08:59:44.535Z,10.57
2023-01-29T09:02:11.961Z,12.15
2023-01-29T09:04:38.587Z,12.13
2023-01-29T09:07:05.196Z,10.65
2023-01-29T09:09:31.798Z,12.27
2023-01-29T09:11:58.664Z,10.57
2023-01-29T09:14:25.492Z,10.77
2023-01-29T09:16:52.156Z,12.70
2023-01-29T09:19:18.726Z,12.02
2023-01-29T09:21:45.264Z,11.32
2023-01-29T09:24:11.937Z,11.38
2023-01-29T09:26:40.203Z,10.02
2023-01-29T09:29:07.076Z,10.63
2023-01-29T09:31:33.722Z,12.68
2023-01-29T09:34:00.381Z,11.63
2023-01-29T09:36:26.987Z,10.05
2023-01-29T09:38:53.569Z,12.18
2023-01-29T09:41:51.684Z,11.80
2023-01-29T09:44:47.622Z,11.35
2023-01-29T09:47:17.261Z,11.98
2023-01-29T09:49:48.388Z,10.63
2023-01-29T09:55:15.352Z,10.98
2023-01-29T09:57:50.642Z,10.02
2023-01-29T10:00:44.536Z,12.38
2023-01-29T10:03:35.658Z,10.88
2023-01-29T10:06:23.376Z,11.73
2023-01-29T10:09:34.988Z,10.32
2023-01-29T10:12:53.626Z,12.52
2023-01-29T10:15:38.683Z,11.63
2023-01-29T10:18:38.200Z,11.73
2023-01-29T10:21:11.609Z,12.18
2023-01-29T10:23:46.166Z,12.60
2023-01-29T10:26:14.731Z,12.90
2023-01-29T10:28:48.464Z,10.60
2023-01-29T10:31:25.279Z,12.38
2023-01-29T10:34:03.462Z,10.77
2023-01-29T10:36:42.982Z,11.38
2023-01-29T10:39:30.971Z,10.88
2023-01-29T10:42:06.463Z,12.23
2023-01-29T10:44:53.564Z,12.05
2023-01-29T10:47:34.725Z,12.43
2023-01-29T10:50:26.564Z,10.68
2023-01-29T10:52:58.987Z,10.90
2023-01-29T10:55:41.638Z,12.85
2023-01-29T10:58:31.902Z,13.35
2023-01-29T11:00:59.656Z,13.93
2023-01-29T11:03:29.130Z,12.07
2023-01-29T11:06:04.763Z,12.32
2023-01-29T11:08:41.382Z,11.13
2023-01-29T11:11:15.511Z,11.98
2023-01-29T11:14:07.788Z,13.73
2023-01-29T11:16:49.835Z,12.13
2023-01-29T11:19:16.728Z,12.10
2023-01-29T11:21:57.874Z,12.00
2023-01-29T11:24:24.704Z,11.18
2023-01-29T11:26:59.561Z,11.25
2023-01-29T11:29:38.806Z,13.43
2023-01-29T11:32:11.993Z,13.02
2023-01-29T11:34:56.736Z,10.63
2023-01-29T11:37:23.899Z,12.55
2023-01-29T11:39:50.722Z,13.10
2023-01-29T11:42:22.238Z,12.75
2023-01-29T11:44:49.620Z,14.30
2023-01-29T11:47:16.031Z,13.10
2023-01-29T11:49:55.128Z,13.95
2023-01-29T11:52:24.669Z,13.48
2023-01-29T11:54:59.417Z,13.63
2023-01-29T11:57:30.437Z,12.05
2023-01-29T12:00:02.760Z,12.93
2023-01-29T12:02:37.048Z,13.45
2023-01-29T12:05:14.555Z,13.55
2023-01-29T12:07:42.967Z,13.90
2023-01-29T12:10:30.775Z,13.00
2023-01-29T12:13:21.783Z,11.10
2023-01-29T12:15:49.175Z,12.73
2023-01-29T12:18:15.686Z,12.73
2023-01-29T12:20:50.610Z,12.40
2023-01-29T12:23:28.322Z,13.68
2023-01-29T12:26:15.957Z,15.27
2023-01-29T12:29:20.857Z,14.70
2023-01-29T12:31:59.759Z,14.32
2023-01-29T12:34:46.416Z,15.70
2023-01-29T12:37:30.817Z,14.07
2023-01-29T12:39:57.363Z,13.70
2023-01-29T12:42:25.489Z,12.60
2023-01-29T12:44:59.552Z,13.23
2023-01-29T12:47:36.821Z,11.63
2023-01-29T12:50:27.613Z,13.00
2023-01-29T12:53:01.798Z,13.70
2023-01-29T12:55:36.979Z,14.85
2023-01-29T12:58:09.327Z,14.68
2023-01-29T13:00:40.387Z,15.60
2023-01-29T13:05:57.166Z,14.23
2023-01-29T13:08:29.379Z,16.85
2023-01-29T13:10:58.686Z,14.35
2023-01-29T13:13:32.974Z,15.38
2023-01-29T13:16:01.306Z,17.65
2023-01-29T13:18:45.244Z,16.38
2023-01-29T13:21:18.435Z,14.57
2023-01-29T13:23:51.345Z,15.55
2023-01-29T13:26:19.858Z,14.95
2023-01-29T13:28:47.559Z,14.23
2023-01-29T13:31:19.944Z,13.55
2023-01-29T13:33:55.416Z,12.48
2023-01-29T13:36:29.123Z,15.02
2023-01-29T13:39:17.100Z,13.95
2023-01-29T13:41:43.759Z,13.90
2023-01-29T13:44:39.772Z,14.45
2023-01-29T13:47:10.426Z,13.30
2023-01-29T13:49:46.346Z,14.82
2023-01-29T13:52:34.075Z,16.60
2023-01-29T13:55:05.840Z,15.80
2023-01-29T13:57:55.939Z,14.68
2023-01-29T14:00:22.696Z,13.45
2023-01-29T14:02:55.223Z,14.55
2023-01-29T14:05:31.003Z,15.02
2023-01-29T14:07:59.565Z,13.27
2023-01-29T14:10:28.813Z,13.45
2023-01-29T14:13:23.900Z,14.02
2023-01-29T14:15:59.486Z,12.80
2023-01-29T14:18:28.084Z,11.27
2023-01-29T14:21:07.148Z,12.05
2023-01-29T14:23:50.696Z,13.70
2023-01-29T14:29:03.049Z,12.77
2023-01-29T14:31:35.135Z,12.48
2023-01-29T14:34:04.979Z,13.55
2023-01-29T14:36:40.103Z,12.82
2023-01-29T14:39:07.663Z,14.88
2023-01-29T14:41:36.003Z,13.32
2023-01-29T14:44:40.420Z,11.85
2023-01-29T14:47:18.770Z,13.48
2023-01-29T14:49:49.297Z,16.22
2023-01-29T14:52:18.026Z,12.70
2023-01-29T14:54:47.909Z,13.90
2023-01-29T14:57:17.177Z,11.00
2023-01-29T14:59:49.684Z,11.73
2023-01-29T15:02:26.473Z,12.40
2023-01-29T15:04:58.175Z,12.85
2023-01-29T15:07:31.970Z,12.00
2023-01-29T15:10:21.479Z,12.23
2023-01-29T15:13:09.179Z,12.57
2023-01-29T15:15:35.716Z,11.95
2023-01-29T15:18:05.018Z,12.52
2023-01-29T15:20:37.407Z,13.98
2023-01-29T15:23:23.744Z,12.25
2023-01-29T15:25:52.861Z,11.32
2023-01-29T15:28:20.070Z,14.52
2023-01-29T15:30:54.099Z,12.82
2023-01-29T15:33:21.330Z,11.90
2023-01-29T15:35:49.851Z,13.00
2023-01-29T15:38:26.693Z,12.30
2023-01-29T15:41:01.971Z,12.20
2023-01-29T15:43:37.268Z,12.80
2023-01-29T15:46:27.062Z,11.82
2023-01-29T15:51:25.594Z,11.18
2023-01-29T15:53:56.121Z,10.65
2023-01-29T15:56:30.424Z,12.80
2023-01-29T15:59:00.770Z,11.07
2023-01-29T16:01:28.785Z,11.32
2023-01-29T16:03:59.365Z,11.40
2023-01-29T16:06:38.829Z,13.07
2023-01-29T16:09:07.327Z,13.18
2023-01-29T16:11:35.721Z,12.45
2023-01-29T16:14:03.487Z,13.15
2023-01-29T16:16:30.272Z,16.75
2023-01-29T16:19:01.386Z,13.10
2023-01-29T16:21:39.080Z,10.88
2023-01-29T16:24:11.778Z,12.35
2023-01-29T16:26:44.876Z,12.85
2023-01-29T16:29:21.763Z,12.10
2023-01-29T16:31:52.124Z,12.65
2023-01-29T16:34:35.120Z,11.57
2023-01-29T16:37:04.377Z,11.80
2023-01-29T16:39:35.750Z,10.90
2023-01-29T16:42:17.546Z,11.20
2023-01-29T16:45:05.706Z,11.25
2023-01-29T16:47:41.218Z,12.38
2023-01-29T16:50:43.399Z,10.68
2023-01-29T16:53:23.362Z,14.63
2023-01-29T16:55:52.495Z,12.70
2023-01-29T16:58:28.250Z,14.20
2023-01-29T17:01:02.169Z,12.20
2023-01-29T17:03:32.589Z,13.43
2023-01-29T17:06:08.455Z,13.30
2023-01-29T17:08:35.626Z,14.55
2023-01-29T17:11:02.883Z,15.70
2023-01-29T17:13:42.687Z,15.65
2023-01-29T17:16:29.813Z,13.65
2023-01-29T17:18:56.458Z,13.80
2023-01-29T17:21:23.691Z,12.68
2023-01-29T17:23:50.699Z,11.00
2023-01-29T17:26:17.987Z,14.07
2023-01-29T17:28:45.107Z,12.65
2023-01-29T17:31:11.952Z,13.07
2023-01-29T17:33:42.775Z,13.77
2023-01-29T17:36:13.290Z,11.02
2023-01-29T17:38:40.395Z,14.32
2023-01-29T17:41:14.174Z,14.73
2023-01-29T17:43:40.743Z,16.55
2023-01-29T17:46:13.626Z,13.95
2023-01-29T17:48:40.737Z,13.77
2023-01-29T17:51:15.119Z,14.68
2023-01-29T17:53:45.784Z,14.30
2023-01-29T17:56:28.121Z,14.73
2023-01-29T17:58:54.691Z,12.73
2023-01-29T18:01:21.435Z,16.75
2023-01-29T18:03:47.964Z,13.77
2023-01-29T18:06:27.347Z,13.38
2023-01-29T18:08:53.963Z,11.65
2023-01-29T18:11:24.136Z,12.45
2023-01-29T18:13:50.961Z,14.85
2023-01-29T18:16:18.531Z,12.40
2023-01-29T18:18:45.211Z,13.20
2023-01-29T18:21:11.769Z,14.32
2023-01-29T18:23:38.345Z,12.00
2023-01-29T18:26:05.121Z,13.20
2023-01-29T18:28:31.632Z,14.38
2023-01-29T18:30:58.211Z,13.15
2023-01-29T18:33:25.939Z,15.75
2023-01-29T18:35:55.007Z,12.35
2023-01-29T18:38:21.616Z,13.05
2023-01-29T18:40:50.099Z,13.68
2023-01-29T18:43:16.949Z,10.57
2023-01-29T18:45:43.492Z,13.20
2023-01-29T18:48:10.132Z,13.05
2023-01-29T18:50:37.909Z,14.75
2023-01-29T18:53:04.494Z,14.23
2023-01-29T18:55:31.269Z,14.38
2023-01-29T18:58:25.919Z,12.88
2023-01-29T19:00:47.214Z,13.30
2023-01-29T19:03:13.707Z,12.48
2023-01-29T19:05:40.262Z,13.27
2023-01-29T19:08:09.616Z,15.57
2023-01-29T19:10:36.423Z,12.10
2023-01-29T19:13:05.293Z,12.80
2023-01-29T19:15:32.476Z,13.70
2023-01-29T19:17:59.029Z,12.88
2023-01-29T19:20:25.553Z,14.13
2023-01-29T19:22:54.323Z,13.40
2023-01-29T19:25:21.301Z,12.35
2023-01-29T19:27:47.905Z,13.43
2023-01-29T19:30:14.720Z,12.02
2023-01-29T19:32:41.502Z,13.52
2023-01-29T19:35:08.272Z,12.13
2023-01-29T19:37:34.823Z,15.00
2023-01-29T19:40:01.380Z,13.80
2023-01-29T19:42:28.219Z,13.93
2023-01-29T19:44:54.775Z,13.13
2023-01-29T19:47:21.422Z,11.32
2023-01-29T19:49:48.014Z,13.63
2023-01-29T19:52:49.896Z,14.43
2023-01-29T19:55:17.550Z,13.52
2023-01-29T19:57:44.381Z,14.23
2023-01-29T20:00:12.209Z,14.07
2023-01-29T20:02:38.782Z,13.13
2023-01-29T20:05:07.054Z,14.00
2023-01-29T20:07:36.046Z,15.27
2023-01-29T20:10:02.746Z,15.02
2023-01-29T20:12:30.008Z,13.82
2023-01-29T20:14:56.634Z,14.02
2023-01-29T20:17:23.305Z,13.02
2023-01-29T20:19:49.763Z,14.40
2023-01-29T20:22:16.432Z,14.15
2023-01-29T20:24:42.923Z,11.65
2023-01-29T20:27:10.698Z,16.88
2023-01-29T20:29:38.614Z,13.73
2023-01-29T20:32:07.979Z,13.93
2023-01-29T20:34:35.175Z,14.43
2023-01-29T20:37:01.942Z,14.95
2023-01-29T20:39:28.624Z,14.07
2023-01-29T20:41:57.262Z,12.63
2023-01-29T20:44:24.628Z,19.77
2023-01-29T20:46:51.396Z,14.13
2023-01-29T20:49:18.406Z,13.40
2023-01-29T20:51:45.703Z,14.02
2023-01-29T20:54:14.999Z,14.70
2023-01-29T20:56:47.044Z,16.08
2023-01-29T20:59:14.298Z,16.77
2023-01-29T21:01:43.670Z,12.85
2023-01-29T21:04:10.235Z,13.48
2023-01-29T21:06:36.756Z,15.23
2023-01-29T21:09:03.738Z,16.30
2023-01-29T21:11:30.322Z,14.73
2023-01-29T21:13:57.907Z,14.23
2023-01-29T21:16:26.353Z,15.23
2023-01-29T21:19:01.987Z,15.57
2023-01-29T21:21:28.769Z,13.85
2023-01-29T21:23:55.250Z,13.75
2023-01-29T21:26:23.291Z,13.70
2023-01-29T21:28:50.045Z,13.13
2023-01-29T21:31:17.639Z,13.10
2023-01-29T21:33:44.528Z,14.60
2023-01-29T21:36:14.867Z,13.48
2023-01-29T21:38:41.418Z,14.63
2023-01-29T21:41:14.504Z,16.33
2023-01-29T21:43:41.018Z,16.25
2023-01-29T21:46:14.148Z,13.85
2023-01-29T21:48:40.779Z,17.00
2023-01-29T21:51:07.986Z,13.98
2023-01-29T21:53:34.973Z,16.23
2023-01-29T21:56:02.885Z,14.40
2023-01-29T21:58:29.982Z,14.63
2023-01-29T22:00:57.386Z,14.20
2023-01-29T22:03:46.118Z,13.98
2023-01-29T22:06:13.634Z,13.65
2023-01-29T22:08:40.130Z,14.63
2023-01-29T22:11:07.411Z,14.15
2023-01-29T22:13:34.122Z,13.63
2023-01-29T22:16:00.908Z,13.00
2023-01-29T22:18:27.764Z,15.30
2023-01-29T22:20:55.275Z,14.82
2023-01-29T22:23:22.883Z,19.35
2023-01-29T22:25:49.668Z,14.18
2023-01-29T22:28:17.069Z,13.65
2023-01-29T22:30:45.110Z,14.98
2023-01-29T22:33:12.245Z,15.43
2023-01-29T22:35:38.979Z,14.38
2023-01-29T22:38:05.510Z,15.20
2023-01-29T22:40:32.110Z,16.15
2023-01-29T22:42:58.620Z,16.70
2023-01-29T22:45:25.272Z,16.15
2023-01-29T22:47:51.727Z,16.50
2023-01-29T22:50:18.468Z,14.32
2023-01-29T22:52:54.050Z,15.80
2023-01-29T22:55:20.841Z,15.10
2023-01-29T22:57:49.520Z,15.88
2023-01-29T23:00:16.826Z,15.13
2023-01-29T23:02:43.491Z,13.60
2023-01-29T23:05:10.042Z,14.60
2023-01-29T23:07:39.450Z,14.60
2023-01-29T23:10:07.250Z,15.32
2023-01-29T23:12:37.010Z,14.00
2023-01-29T23:15:03.874Z,14.55
2023-01-29T23:17:30.477Z,12.07
2023-01-29T23:19:56.952Z,15.38
2023-01-29T23:22:23.599Z,14.95
2023-01-29T23:24:50.214Z,15.60
2023-01-29T23:27:16.808Z,13.68
2023-01-29T23:29:45.116Z,16.15
2023-01-29T23:32:16.495Z,15.88
2023-01-29T23:34:42.968Z,13.02
2023-01-29T23:37:09.812Z,14.18
2023-01-29T23:39:36.446Z,12.73
2023-01-29T23:42:03.160Z,14.02
2023-01-29T23:44:29.633Z,14.13
2023-01-29T23:46:56.263Z,13.45
2023-01-29T23:49:22.857Z,12.73
2023-01-29T23:51:51.314Z,14.05
2023-01-29T23:54:18.390Z,13.07
2023-01-29T23:56:45.190Z,16.17
2023-01-29T23:59:11.836Z,11.50
